sensor_id;sensor_type;location;lat;lon;timestamp;P1;durP1;ratioP1;P2;durP2;ratioP2
46028;SDS011;31763;48.180;7.904;2023-01-08T00:01:05;2.88;;;1.55;;
46028;SDS011;31763;48.180;7.904;2023-01-08T00:03:35;4.27;;;1.77;;
46028;SDS011;31763;48.180;7.904;2023-01-08T00:06:04;1.50;;;1.33;;
46028;SDS011;31763;48.180;7.904;2023-01-08T00:08:34;1.70;;;1.50;;
46028;SDS011;31763;48.180;7.904;2023-01-08T00:11:00;3.20;;;1.73;;
46028;SDS011;31763;48.180;7.904;2023-01-08T00:13:27;1.23;;;1.13;;
46028;SDS011;31763;48.180;7.904;2023-01-08T00:15:54;3.35;;;1.33;;
46028;SDS011;31763;48.180;7.904;2023-01-08T00:18:21;4.22;;;1.65;;
46028;SDS011;31763;48.180;7.904;2023-01-08T00:20:49;2.85;;;1.48;;
46028;SDS011;31763;48.180;7.904;2023-01-08T00:23:17;3.22;;;1.40;;
46028;SDS011;31763;48.180;7.904;2023-01-08T00:25:45;1.77;;;1.20;;
46028;SDS011;31763;48.180;7.904;2023-01-08T00:28:12;2.35;;;1.50;;
46028;SDS011;31763;48.180;7.904;2023-01-08T00:30:40;2.28;;;1.70;;
46028;SDS011;31763;48.180;7.904;2023-01-08T00:33:08;2.35;;;1.58;;
46028;SDS011;31763;48.180;7.904;2023-01-08T00:35:38;1.75;;;1.50;;
46028;SDS011;31763;48.180;7.904;2023-01-08T00:38:06;4.10;;;1.52;;
46028;SDS011;31763;48.180;7.904;2023-01-08T00:40:33;2.28;;;1.35;;
46028;SDS011;31763;48.180;7.904;2023-01-08T00:43:01;2.90;;;1.70;;
46028;SDS011;31763;48.180;7.904;2023-01-08T00:45:29;1.80;;;1.40;;
46028;SDS011;31763;48.180;7.904;2023-01-08T00:47:56;1.00;;;0.80;;
46028;SDS011;31763;48.180;7.904;2023-01-08T00:50:22;1.77;;;1.13;;
46028;SDS011;31763;48.180;7.904;2023-01-08T00:52:50;1.80;;;1.17;;
46028;SDS011;31763;48.180;7.904;2023-01-08T00:55:17;2.55;;;1.27;;
46028;SDS011;31763;48.180;7.904;2023-01-08T00:57:44;1.80;;;1.20;;
46028;SDS011;31763;48.180;7.904;2023-01-08T01:00:12;2.97;;;1.50;;
46028;SDS011;31763;48.180;7.904;2023-01-08T01:02:41;1.65;;;1.48;;
46028;SDS011;31763;48.180;7.904;2023-01-08T01:05:08;1.58;;;1.20;;
46028;SDS011;31763;48.180;7.904;2023-01-08T01:07:38;2.08;;;1.10;;
46028;SDS011;31763;48.180;7.904;2023-01-08T01:10:05;1.20;;;0.93;;
46028;SDS011;31763;48.180;7.904;2023-01-08T01:12:32;6.72;;;2.50;;
46028;SDS011;31763;48.180;7.904;2023-01-08T01:14:59;2.20;;;1.65;;
46028;SDS011;31763;48.180;7.904;2023-01-08T01:17:26;2.38;;;1.65;;
46028;SDS011;31763;48.180;7.904;2023-01-08T01:19:53;1.60;;;1.20;;
46028;SDS011;31763;48.180;7.904;2023-01-08T01:22:20;1.33;;;0.93;;
46028;SDS011;31763;48.180;7.904;2023-01-08T01:24:46;2.47;;;1.80;;
46028;SDS011;31763;48.180;7.904;2023-01-08T01:27:13;2.75;;;1.30;;
46028;SDS011;31763;48.180;7.904;2023-01-08T01:29:40;2.92;;;1.70;;
46028;SDS011;31763;48.180;7.904;2023-01-08T01:32:07;1.90;;;1.30;;
46028;SDS011;31763;48.180;7.904;2023-01-08T01:34:34;1.20;;;0.82;;
46028;SDS011;31763;48.180;7.904;2023-01-08T01:37:01;1.38;;;0.75;;
46028;SDS011;31763;48.180;7.904;2023-01-08T01:39:28;2.05;;;1.13;;
46028;SDS011;31763;48.180;7.904;2023-01-08T01:41:55;2.72;;;1.60;;
46028;SDS011;31763;48.180;7.904;2023-01-08T01:44:39;2.50;;;1.45;;
46028;SDS011;31763;48.180;7.904;2023-01-08T01:47:18;1.92;;;1.35;;
46028;SDS011;31763;48.180;7.904;2023-01-08T01:52:57;2.05;;;1.35;;
46028;SDS011;31763;48.180;7.904;2023-01-08T01:55:27;1.48;;;0.98;;
46028;SDS011;31763;48.180;7.904;2023-01-08T01:58:16;2.13;;;1.30;;
46028;SDS011;31763;48.180;7.904;2023-01-08T02:00:46;1.20;;;0.90;;
46028;SDS011;31763;48.180;7.904;2023-01-08T02:03:15;1.73;;;0.80;;
46028;SDS011;31763;48.180;7.904;2023-01-08T02:05:58;1.17;;;0.75;;
46028;SDS011;31763;48.180;7.904;2023-01-08T02:11:11;3.78;;;1.58;;
46028;SDS011;31763;48.180;7.904;2023-01-08T02:17:02;1.60;;;1.35;;
46028;SDS011;31763;48.180;7.904;2023-01-08T02:25:16;1.38;;;1.00;;
46028;SDS011;31763;48.180;7.904;2023-01-08T02:28:13;1.92;;;1.20;;
46028;SDS011;31763;48.180;7.904;2023-01-08T02:30:41;1.70;;;1.25;;
46028;SDS011;31763;48.180;7.904;2023-01-08T02:33:10;0.80;;;0.80;;
46028;SDS011;31763;48.180;7.904;2023-01-08T02:35:43;1.88;;;1.30;;
46028;SDS011;31763;48.180;7.904;2023-01-08T02:38:17;1.00;;;0.85;;
46028;SDS011;31763;48.180;7.904;2023-01-08T02:40:58;2.15;;;0.98;;
46028;SDS011;31763;48.180;7.904;2023-01-08T02:43:38;2.08;;;1.30;;
46028;SDS011;31763;48.180;7.904;2023-01-08T02:46:12;2.75;;;1.42;;
46028;SDS011;31763;48.180;7.904;2023-01-08T02:48:44;5.13;;;1.00;;
46028;SDS011;31763;48.180;7.904;2023-01-08T02:53:56;1.23;;;0.95;;
46028;SDS011;31763;48.180;7.904;2023-01-08T02:56:28;3.80;;;1.27;;
46028;SDS011;31763;48.180;7.904;2023-01-08T02:59:02;2.67;;;1.27;;
46028;SDS011;31763;48.180;7.904;2023-01-08T03:01:32;2.72;;;1.52;;
46028;SDS011;31763;48.180;7.904;2023-01-08T03:04:05;2.70;;;1.38;;
46028;SDS011;31763;48.180;7.904;2023-01-08T03:06:42;2.97;;;1.25;;
46028;SDS011;31763;48.180;7.904;2023-01-08T03:09:09;2.63;;;1.20;;
46028;SDS011;31763;48.180;7.904;2023-01-08T03:11:45;1.45;;;1.00;;
46028;SDS011;31763;48.180;7.904;2023-01-08T03:14:38;2.33;;;1.05;;
46028;SDS011;31763;48.180;7.904;2023-01-08T03:17:28;2.70;;;0.98;;
46028;SDS011;31763;48.180;7.904;2023-01-08T03:19:59;1.30;;;1.00;;
46028;SDS011;31763;48.180;7.904;2023-01-08T03:22:33;0.73;;;0.70;;
46028;SDS011;31763;48.180;7.904;2023-01-08T03:25:05;2.65;;;1.35;;
46028;SDS011;31763;48.180;7.904;2023-01-08T03:27:34;1.90;;;1.33;;
46028;SDS011;31763;48.180;7.904;2023-01-08T03:30:08;1.85;;;1.30;;
46028;SDS011;31763;48.180;7.904;2023-01-08T03:32:37;1.98;;;1.20;;
46028;SDS011;31763;48.180;7.904;2023-01-08T03:35:07;1.35;;;1.02;;
46028;SDS011;31763;48.180;7.904;2023-01-08T03:37:38;6.50;;;1.80;;
46028;SDS011;31763;48.180;7.904;2023-01-08T03:40:13;1.48;;;1.05;;
46028;SDS011;31763;48.180;7.904;2023-01-08T03:42:47;2.35;;;1.23;;
46028;SDS011;31763;48.180;7.904;2023-01-08T03:45:13;3.53;;;1.63;;
46028;SDS011;31763;48.180;7.904;2023-01-08T03:47:40;2.15;;;1.55;;
46028;SDS011;31763;48.180;7.904;2023-01-08T03:50:10;1.48;;;1.30;;
46028;SDS011;31763;48.180;7.904;2023-01-08T03:52:42;4.88;;;1.45;;
46028;SDS011;31763;48.180;7.904;2023-01-08T03:55:08;3.17;;;2.13;;
46028;SDS011;31763;48.180;7.904;2023-01-08T03:57:35;3.05;;;1.65;;
46028;SDS011;31763;48.180;7.904;2023-01-08T04:00:02;5.05;;;2.00;;
46028;SDS011;31763;48.180;7.904;2023-01-08T04:02:30;5.53;;;1.80;;
46028;SDS011;31763;48.180;7.904;2023-01-08T04:04:57;5.63;;;1.70;;
46028;SDS011;31763;48.180;7.904;2023-01-08T04:07:24;4.05;;;1.90;;
46028;SDS011;31763;48.180;7.904;2023-01-08T04:09:51;4.72;;;2.10;;
46028;SDS011;31763;48.180;7.904;2023-01-08T04:12:18;3.10;;;1.90;;
46028;SDS011;31763;48.180;7.904;2023-01-08T04:14:44;4.60;;;1.65;;
46028;SDS011;31763;48.180;7.904;2023-01-08T04:17:11;3.92;;;2.17;;
46028;SDS011;31763;48.180;7.904;2023-01-08T04:19:38;3.08;;;2.30;;
46028;SDS011;31763;48.180;7.904;2023-01-08T04:22:05;2.83;;;1.67;;
46028;SDS011;31763;48.180;7.904;2023-01-08T04:24:36;2.33;;;1.87;;
46028;SDS011;31763;48.180;7.904;2023-01-08T04:27:03;2.22;;;1.67;;
46028;SDS011;31763;48.180;7.904;2023-01-08T04:29:30;4.00;;;2.35;;
46028;SDS011;31763;48.180;7.904;2023-01-08T04:31:57;4.75;;;2.50;;
46028;SDS011;31763;48.180;7.904;2023-01-08T04:34:25;4.57;;;1.88;;
46028;SDS011;31763;48.180;7.904;2023-01-08T04:36:51;4.70;;;2.72;;
46028;SDS011;31763;48.180;7.904;2023-01-08T04:39:18;4.97;;;3.38;;
46028;SDS011;31763;48.180;7.904;2023-01-08T04:41:45;5.05;;;3.13;;
46028;SDS011;31763;48.180;7.904;2023-01-08T04:44:12;6.07;;;3.35;;
46028;SDS011;31763;48.180;7.904;2023-01-08T04:46:38;5.70;;;3.20;;
46028;SDS011;31763;48.180;7.904;2023-01-08T04:49:05;4.88;;;3.35;;
46028;SDS011;31763;48.180;7.904;2023-01-08T04:51:32;3.22;;;1.35;;
46028;SDS011;31763;48.180;7.904;2023-01-08T04:53:59;4.95;;;3.55;;
46028;SDS011;31763;48.180;7.904;2023-01-08T04:56:26;1.90;;;1.55;;
46028;SDS011;31763;48.180;7.904;2023-01-08T04:58:52;6.75;;;2.65;;
46028;SDS011;31763;48.180;7.904;2023-01-08T05:01:20;2.97;;;2.13;;
46028;SDS011;31763;48.180;7.904;2023-01-08T05:03:53;4.40;;;3.15;;
46028;SDS011;31763;48.180;7.904;2023-01-08T05:06:21;2.83;;;1.80;;
46028;SDS011;31763;48.180;7.904;2023-01-08T05:08:49;3.13;;;2.05;;
46028;SDS011;31763;48.180;7.904;2023-01-08T05:11:16;5.03;;;2.75;;
46028;SDS011;31763;48.180;7.904;2023-01-08T05:13:42;2.60;;;1.95;;
46028;SDS011;31763;48.180;7.904;2023-01-08T05:16:13;3.90;;;2.30;;
46028;SDS011;31763;48.180;7.904;2023-01-08T05:18:41;1.95;;;1.40;;
46028;SDS011;31763;48.180;7.904;2023-01-08T05:21:10;1.60;;;1.30;;
46028;SDS011;31763;48.180;7.904;2023-01-08T05:23:38;3.92;;;2.47;;
46028;SDS011;31763;48.180;7.904;2023-01-08T05:26:05;3.33;;;1.48;;
46028;SDS011;31763;48.180;7.904;2023-01-08T05:28:33;2.60;;;1.83;;
46028;SDS011;31763;48.180;7.904;2023-01-08T05:30:59;1.98;;;1.35;;
46028;SDS011;31763;48.180;7.904;2023-01-08T05:33:26;3.67;;;2.10;;
46028;SDS011;31763;48.180;7.904;2023-01-08T05:35:53;3.92;;;1.92;;
46028;SDS011;31763;48.180;7.904;2023-01-08T05:38:21;2.80;;;1.75;;
46028;SDS011;31763;48.180;7.904;2023-01-08T05:40:51;2.75;;;2.17;;
46028;SDS011;31763;48.180;7.904;2023-01-08T05:43:19;2.65;;;1.33;;
46028;SDS011;31763;48.180;7.904;2023-01-08T05:45:46;4.57;;;2.40;;
46028;SDS011;31763;48.180;7.904;2023-01-08T05:48:12;3.97;;;1.30;;
46028;SDS011;31763;48.180;7.904;2023-01-08T05:50:39;4.43;;;2.67;;
46028;SDS011;31763;48.180;7.904;2023-01-08T05:53:07;8.02;;;2.20;;
46028;SDS011;31763;48.180;7.904;2023-01-08T05:55:34;4.38;;;2.47;;
46028;SDS011;31763;48.180;7.904;2023-01-08T05:58:02;3.03;;;2.30;;
46028;SDS011;31763;48.180;7.904;2023-01-08T06:00:33;3.88;;;2.35;;
46028;SDS011;31763;48.180;7.904;2023-01-08T06:03:00;3.20;;;2.17;;
46028;SDS011;31763;48.180;7.904;2023-01-08T06:05:27;2.03;;;1.65;;
46028;SDS011;31763;48.180;7.904;2023-01-08T06:07:57;2.35;;;1.75;;
46028;SDS011;31763;48.180;7.904;2023-01-08T06:10:24;2.40;;;1.25;;
46028;SDS011;31763;48.180;7.904;2023-01-08T06:12:51;2.80;;;1.10;;
46028;SDS011;31763;48.180;7.904;2023-01-08T06:15:18;3.63;;;1.50;;
46028;SDS011;31763;48.180;7.904;2023-01-08T06:17:45;1.48;;;1.20;;
46028;SDS011;31763;48.180;7.904;2023-01-08T06:20:12;2.08;;;1.38;;
46028;SDS011;31763;48.180;7.904;2023-01-08T06:22:38;0.68;;;0.68;;
46028;SDS011;31763;48.180;7.904;2023-01-08T06:25:05;1.85;;;1.65;;
46028;SDS011;31763;48.180;7.904;2023-01-08T06:27:32;1.40;;;1.13;;
46028;SDS011;31763;48.180;7.904;2023-01-08T06:29:59;1.88;;;0.88;;
46028;SDS011;31763;48.180;7.904;2023-01-08T06:32:26;0.88;;;0.77;;
46028;SDS011;31763;48.180;7.904;2023-01-08T06:34:52;2.83;;;1.02;;
46028;SDS011;31763;48.180;7.904;2023-01-08T06:37:19;1.50;;;1.10;;
46028;SDS011;31763;48.180;7.904;2023-01-08T06:39:46;3.22;;;1.17;;
46028;SDS011;31763;48.180;7.904;2023-01-08T06:42:13;1.90;;;1.05;;
46028;SDS011;31763;48.180;7.904;2023-01-08T06:44:39;1.42;;;0.90;;
46028;SDS011;31763;48.180;7.904;2023-01-08T06:47:06;3.70;;;3.08;;
46028;SDS011;31763;48.180;7.904;2023-01-08T06:49:33;3.05;;;1.80;;
46028;SDS011;31763;48.180;7.904;2023-01-08T06:52:00;0.95;;;0.80;;
46028;SDS011;31763;48.180;7.904;2023-01-08T06:54:27;1.90;;;0.90;;
46028;SDS011;31763;48.180;7.904;2023-01-08T06:56:53;1.60;;;0.85;;
46028;SDS011;31763;48.180;7.904;2023-01-08T06:59:20;2.20;;;0.90;;
46028;SDS011;31763;48.180;7.904;2023-01-08T07:01:47;1.35;;;1.05;;
46028;SDS011;31763;48.180;7.904;2023-01-08T07:04:15;1.55;;;1.25;;
46028;SDS011;31763;48.180;7.904;2023-01-08T07:06:43;1.25;;;0.75;;
46028;SDS011;31763;48.180;7.904;2023-01-08T07:09:13;0.50;;;0.47;;
46028;SDS011;31763;48.180;7.904;2023-01-08T07:11:41;0.82;;;0.75;;
46028;SDS011;31763;48.180;7.904;2023-01-08T07:14:07;1.30;;;0.77;;
46028;SDS011;31763;48.180;7.904;2023-01-08T07:16:34;1.38;;;0.90;;
46028;SDS011;31763;48.180;7.904;2023-01-08T07:19:01;3.40;;;1.60;;
46028;SDS011;31763;48.180;7.904;2023-01-08T07:21:28;4.28;;;0.85;;
46028;SDS011;31763;48.180;7.904;2023-01-08T07:23:56;0.82;;;0.80;;
46028;SDS011;31763;48.180;7.904;2023-01-08T07:26:24;0.47;;;0.40;;
46028;SDS011;31763;48.180;7.904;2023-01-08T07:28:51;0.90;;;0.80;;
46028;SDS011;31763;48.180;7.904;2023-01-08T07:31:18;3.90;;;0.80;;
46028;SDS011;31763;48.180;7.904;2023-01-08T07:33:44;0.68;;;0.57;;
46028;SDS011;31763;48.180;7.904;2023-01-08T07:36:11;0.98;;;0.75;;
46028;SDS011;31763;48.180;7.904;2023-01-08T07:38:38;1.27;;;0.98;;
46028;SDS011;31763;48.180;7.904;2023-01-08T07:41:05;0.60;;;0.45;;
46028;SDS011;31763;48.180;7.904;2023-01-08T07:43:31;0.57;;;0.50;;
46028;SDS011;31763;48.180;7.904;2023-01-08T07:46:00;0.30;;;0.30;;
46028;SDS011;31763;48.180;7.904;2023-01-08T07:48:28;1.80;;;1.25;;
46028;SDS011;31763;48.180;7.904;2023-01-08T07:50:59;0.82;;;0.70;;
46028;SDS011;31763;48.180;7.904;2023-01-08T07:53:28;0.63;;;0.50;;
46028;SDS011;31763;48.180;7.904;2023-01-08T07:55:59;1.08;;;0.50;;
46028;SDS011;31763;48.180;7.904;2023-01-08T07:58:31;0.57;;;0.43;;
46028;SDS011;31763;48.180;7.904;2023-01-08T08:00:58;1.48;;;0.40;;
46028;SDS011;31763;48.180;7.904;2023-01-08T08:03:25;2.15;;;0.70;;
46028;SDS011;31763;48.180;7.904;2023-01-08T08:05:52;1.92;;;0.60;;
46028;SDS011;31763;48.180;7.904;2023-01-08T08:08:19;0.60;;;0.60;;
46028;SDS011;31763;48.180;7.904;2023-01-08T08:10:46;0.63;;;0.55;;
46028;SDS011;31763;48.180;7.904;2023-01-08T08:13:13;0.73;;;0.40;;
46028;SDS011;31763;48.180;7.904;2023-01-08T08:15:40;1.00;;;0.90;;
46028;SDS011;31763;48.180;7.904;2023-01-08T08:18:07;1.27;;;1.13;;
46028;SDS011;31763;48.180;7.904;2023-01-08T08:20:34;7.43;;;3.63;;
46028;SDS011;31763;48.180;7.904;2023-01-08T08:23:03;3.92;;;2.42;;
46028;SDS011;31763;48.180;7.904;2023-01-08T08:25:38;3.30;;;0.57;;
46028;SDS011;31763;48.180;7.904;2023-01-08T08:28:06;1.05;;;0.60;;
46028;SDS011;31763;48.180;7.904;2023-01-08T08:30:35;3.17;;;0.50;;
46028;SDS011;31763;48.180;7.904;2023-01-08T08:33:05;0.57;;;0.47;;
46028;SDS011;31763;48.180;7.904;2023-01-08T08:35:32;0.60;;;0.57;;
46028;SDS011;31763;48.180;7.904;2023-01-08T08:37:59;1.13;;;0.60;;
46028;SDS011;31763;48.180;7.904;2023-01-08T08:40:26;1.50;;;0.93;;
46028;SDS011;31763;48.180;7.904;2023-01-08T08:42:57;0.75;;;0.73;;
46028;SDS011;31763;48.180;7.904;2023-01-08T08:45:26;0.60;;;0.50;;
46028;SDS011;31763;48.180;7.904;2023-01-08T08:47:53;1.45;;;0.85;;
46028;SDS011;31763;48.180;7.904;2023-01-08T08:50:21;1.23;;;0.75;;
46028;SDS011;31763;48.180;7.904;2023-01-08T08:52:48;0.90;;;0.73;;
46028;SDS011;31763;48.180;7.904;2023-01-08T08:55:15;1.13;;;0.80;;
46028;SDS011;31763;48.180;7.904;2023-01-08T08:57:43;0.55;;;0.50;;
46028;SDS011;31763;48.180;7.904;2023-01-08T09:00:11;4.78;;;1.15;;
46028;SDS011;31763;48.180;7.904;2023-01-08T09:02:40;1.23;;;1.10;;
46028;SDS011;31763;48.180;7.904;2023-01-08T09:05:07;1.55;;;0.63;;
46028;SDS011;31763;48.180;7.904;2023-01-08T09:07:34;0.82;;;0.63;;
46028;SDS011;31763;48.180;7.904;2023-01-08T09:10:01;1.13;;;0.95;;
46028;SDS011;31763;48.180;7.904;2023-01-08T09:12:29;0.50;;;0.50;;
46028;SDS011;31763;48.180;7.904;2023-01-08T09:14:55;0.88;;;0.60;;
46028;SDS011;31763;48.180;7.904;2023-01-08T09:17:22;0.85;;;0.65;;
46028;SDS011;31763;48.180;7.904;2023-01-08T09:19:50;0.95;;;0.63;;
46028;SDS011;31763;48.180;7.904;2023-01-08T09:22:17;0.73;;;0.45;;
46028;SDS011;31763;48.180;7.904;2023-01-08T09:24:44;0.55;;;0.50;;
46028;SDS011;31763;48.180;7.904;2023-01-08T09:27:11;0.47;;;0.40;;
46028;SDS011;31763;48.180;7.904;2023-01-08T09:29:39;0.77;;;0.50;;
46028;SDS011;31763;48.180;7.904;2023-01-08T09:32:06;0.70;;;0.60;;
46028;SDS011;31763;48.180;7.904;2023-01-08T09:34:33;0.17;;;0.15;;
46028;SDS011;31763;48.180;7.904;2023-01-08T09:37:03;6.82;;;2.97;;
46028;SDS011;31763;48.180;7.904;2023-01-08T09:39:31;11.20;;;5.72;;
46028;SDS011;31763;48.180;7.904;2023-01-08T09:42:00;9.85;;;5.03;;
46028;SDS011;31763;48.180;7.904;2023-01-08T09:44:34;3.65;;;2.92;;
46028;SDS011;31763;48.180;7.904;2023-01-08T09:47:05;2.08;;;1.67;;
46028;SDS011;31763;48.180;7.904;2023-01-08T09:49:46;0.65;;;0.60;;
46028;SDS011;31763;48.180;7.904;2023-01-08T09:52:14;1.17;;;0.77;;
46028;SDS011;31763;48.180;7.904;2023-01-08T09:54:41;0.80;;;0.60;;
46028;SDS011;31763;48.180;7.904;2023-01-08T09:57:18;0.55;;;0.40;;
46028;SDS011;31763;48.180;7.904;2023-01-08T09:59:47;1.38;;;1.27;;
46028;SDS011;31763;48.180;7.904;2023-01-08T10:02:15;0.63;;;0.57;;
46028;SDS011;31763;48.180;7.904;2023-01-08T10:04:45;0.63;;;0.63;;
46028;SDS011;31763;48.180;7.904;2023-01-08T10:07:20;1.95;;;1.15;;
46028;SDS011;31763;48.180;7.904;2023-01-08T10:09:53;0.32;;;0.32;;
46028;SDS011;31763;48.180;7.904;2023-01-08T10:12:27;3.83;;;1.00;;
46028;SDS011;31763;48.180;7.904;2023-01-08T10:14:58;3.15;;;1.13;;
46028;SDS011;31763;48.180;7.904;2023-01-08T10:17:36;1.55;;;1.45;;
46028;SDS011;31763;48.180;7.904;2023-01-08T10:20:11;0.45;;;0.40;;
46028;SDS011;31763;48.180;7.904;2023-01-08T10:22:41;0.20;;;0.20;;
46028;SDS011;31763;48.180;7.904;2023-01-08T10:25:11;0.40;;;0.40;;
46028;SDS011;31763;48.180;7.904;2023-01-08T10:27:46;0.73;;;0.60;;
46028;SDS011;31763;48.180;7.904;2023-01-08T10:30:20;0.60;;;0.40;;
46028;SDS011;31763;48.180;7.904;2023-01-08T10:33:09;0.70;;;0.52;;
46028;SDS011;31763;48.180;7.904;2023-01-08T10:35:49;0.55;;;0.50;;
46028;SDS011;31763;48.180;7.904;2023-01-08T10:38:32;0.50;;;0.40;;
46028;SDS011;31763;48.180;7.904;2023-01-08T10:41:05;0.40;;;0.40;;
46028;SDS011;31763;48.180;7.904;2023-01-08T10:46:34;3.50;;;0.40;;
46028;SDS011;31763;48.180;7.904;2023-01-08T10:49:18;0.77;;;0.57;;
46028;SDS011;31763;48.180;7.904;2023-01-08T10:52:04;1.48;;;0.47;;
46028;SDS011;31763;48.180;7.904;2023-01-08T10:54:33;0.57;;;0.47;;
46028;SDS011;31763;48.180;7.904;2023-01-08T10:57:19;1.10;;;0.52;;
46028;SDS011;31763;48.180;7.904;2023-01-08T10:59:54;0.93;;;0.30;;
46028;SDS011;31763;48.180;7.904;2023-01-08T11:04:57;0.30;;;0.30;;
46028;SDS011;31763;48.180;7.904;2023-01-08T11:07:24;0.30;;;0.30;;
46028;SDS011;31763;48.180;7.904;2023-01-08T11:09:52;0.40;;;0.35;;
46028;SDS011;31763;48.180;7.904;2023-01-08T11:12:36;0.50;;;0.40;;
46028;SDS011;31763;48.180;7.904;2023-01-08T11:15:22;0.38;;;0.20;;
46028;SDS011;31763;48.180;7.904;2023-01-08T11:18:04;0.82;;;0.47;;
46028;SDS011;31763;48.180;7.904;2023-01-08T11:20:40;0.50;;;0.30;;
46028;SDS011;31763;48.180;7.904;2023-01-08T11:23:15;0.65;;;0.60;;
46028;SDS011;31763;48.180;7.904;2023-01-08T11:25:55;0.60;;;0.40;;
46028;SDS011;31763;48.180;7.904;2023-01-08T11:31:13;0.40;;;0.30;;
46028;SDS011;31763;48.180;7.904;2023-01-08T11:36:21;1.95;;;1.83;;
46028;SDS011;31763;48.180;7.904;2023-01-08T11:39:00;0.43;;;0.43;;
46028;SDS011;31763;48.180;7.904;2023-01-08T11:44:20;1.13;;;1.02;;
46028;SDS011;31763;48.180;7.904;2023-01-08T11:47:01;0.25;;;0.25;;
46028;SDS011;31763;48.180;7.904;2023-01-08T11:53:07;0.55;;;0.55;;
46028;SDS011;31763;48.180;7.904;2023-01-08T12:08:19;0.10;;;0.10;;
46028;SDS011;31763;48.180;7.904;2023-01-08T12:20:18;0.30;;;0.30;;
46028;SDS011;31763;48.180;7.904;2023-01-08T12:25:36;0.32;;;0.20;;
46028;SDS011;31763;48.180;7.904;2023-01-08T12:28:35;3.60;;;1.75;;
46028;SDS011;31763;48.180;7.904;2023-01-08T12:31:58;0.95;;;0.80;;
46028;SDS011;31763;48.180;7.904;2023-01-08T12:37:35;0.40;;;0.38;;
46028;SDS011;31763;48.180;7.904;2023-01-08T12:40:26;5.57;;;0.30;;
46028;SDS011;31763;48.180;7.904;2023-01-08T12:43:03;0.88;;;0.28;;
46028;SDS011;31763;48.180;7.904;2023-01-08T12:45:39;0.77;;;0.38;;
46028;SDS011;31763;48.180;7.904;2023-01-08T12:48:11;0.45;;;0.32;;
46028;SDS011;31763;48.180;7.904;2023-01-08T12:54:16;3.55;;;0.65;;
46028;SDS011;31763;48.180;7.904;2023-01-08T13:02:35;0.85;;;0.50;;
46028;SDS011;31763;48.180;7.904;2023-01-08T13:05:28;0.30;;;0.30;;
46028;SDS011;31763;48.180;7.904;2023-01-08T13:08:01;0.50;;;0.50;;
46028;SDS011;31763;48.180;7.904;2023-01-08T13:13:06;4.75;;;2.97;;
46028;SDS011;31763;48.180;7.904;2023-01-08T13:15:52;2.38;;;1.50;;
46028;SDS011;31763;48.180;7.904;2023-01-08T13:21:25;2.05;;;1.63;;
46028;SDS011;31763;48.180;7.904;2023-01-08T13:24:01;0.98;;;0.82;;
46028;SDS011;31763;48.180;7.904;2023-01-08T13:26:45;1.30;;;0.80;;
46028;SDS011;31763;48.180;7.904;2023-01-08T13:29:22;0.47;;;0.38;;
46028;SDS011;31763;48.180;7.904;2023-01-08T13:35:28;0.52;;;0.38;;
46028;SDS011;31763;48.180;7.904;2023-01-08T13:40:55;1.23;;;0.40;;
46028;SDS011;31763;48.180;7.904;2023-01-08T13:43:24;0.63;;;0.40;;
46028;SDS011;31763;48.180;7.904;2023-01-08T13:48:41;4.45;;;2.95;;
46028;SDS011;31763;48.180;7.904;2023-01-08T13:54:17;0.55;;;0.50;;
46028;SDS011;31763;48.180;7.904;2023-01-08T13:56:52;5.18;;;3.20;;
46028;SDS011;31763;48.180;7.904;2023-01-08T13:59:33;2.38;;;1.50;;
46028;SDS011;31763;48.180;7.904;2023-01-08T14:02:27;1.60;;;1.17;;
46028;SDS011;31763;48.180;7.904;2023-01-08T14:05:11;2.90;;;1.80;;
46028;SDS011;31763;48.180;7.904;2023-01-08T14:08:01;2.10;;;1.35;;
46028;SDS011;31763;48.180;7.904;2023-01-08T14:10:50;4.35;;;2.50;;
46028;SDS011;31763;48.180;7.904;2023-01-08T14:13:28;9.55;;;4.93;;
46028;SDS011;31763;48.180;7.904;2023-01-08T14:16:09;17.90;;;7.60;;
46028;SDS011;31763;48.180;7.904;2023-01-08T14:18:49;5.28;;;2.47;;
46028;SDS011;31763;48.180;7.904;2023-01-08T14:21:20;4.75;;;2.38;;
46028;SDS011;31763;48.180;7.904;2023-01-08T14:23:49;4.43;;;1.83;;
46028;SDS011;31763;48.180;7.904;2023-01-08T14:26:26;4.82;;;2.58;;
46028;SDS011;31763;48.180;7.904;2023-01-08T14:28:57;0.70;;;0.60;;
46028;SDS011;31763;48.180;7.904;2023-01-08T14:31:28;6.15;;;3.35;;
46028;SDS011;31763;48.180;7.904;2023-01-08T14:34:00;15.30;;;7.65;;
46028;SDS011;31763;48.180;7.904;2023-01-08T14:36:49;24.00;;;13.73;;
46028;SDS011;31763;48.180;7.904;2023-01-08T14:39:21;11.73;;;6.90;;
46028;SDS011;31763;48.180;7.904;2023-01-08T14:42:00;16.15;;;10.07;;
46028;SDS011;31763;48.180;7.904;2023-01-08T14:45:07;29.98;;;19.58;;
46028;SDS011;31763;48.180;7.904;2023-01-08T14:47:44;5.88;;;4.03;;
46028;SDS011;31763;48.180;7.904;2023-01-08T14:50:17;3.10;;;1.60;;
46028;SDS011;31763;48.180;7.904;2023-01-08T14:53:34;1.58;;;1.20;;
46028;SDS011;31763;48.180;7.904;2023-01-08T14:56:15;2.70;;;0.90;;
46028;SDS011;31763;48.180;7.904;2023-01-08T14:58:54;0.80;;;0.70;;
46028;SDS011;31763;48.180;7.904;2023-01-08T15:04:05;2.28;;;1.83;;
46028;SDS011;31763;48.180;7.904;2023-01-08T15:06:39;1.08;;;0.65;;
46028;SDS011;31763;48.180;7.904;2023-01-08T15:09:40;0.98;;;0.68;;
46028;SDS011;31763;48.180;7.904;2023-01-08T15:12:06;1.50;;;1.00;;
46028;SDS011;31763;48.180;7.904;2023-01-08T15:14:53;1.70;;;1.30;;
46028;SDS011;31763;48.180;7.904;2023-01-08T15:17:24;10.18;;;5.82;;
46028;SDS011;31763;48.180;7.904;2023-01-08T15:19:54;8.30;;;5.22;;
46028;SDS011;31763;48.180;7.904;2023-01-08T15:22:26;1.23;;;1.05;;
46028;SDS011;31763;48.180;7.904;2023-01-08T15:24:59;3.15;;;1.80;;
46028;SDS011;31763;48.180;7.904;2023-01-08T15:27:30;4.63;;;1.08;;
46028;SDS011;31763;48.180;7.904;2023-01-08T15:30:03;2.38;;;1.10;;
46028;SDS011;31763;48.180;7.904;2023-01-08T15:32:50;1.48;;;0.90;;
46028;SDS011;31763;48.180;7.904;2023-01-08T15:35:33;6.40;;;3.58;;
46028;SDS011;31763;48.180;7.904;2023-01-08T15:40:35;0.90;;;0.80;;
46028;SDS011;31763;48.180;7.904;2023-01-08T15:43:12;1.45;;;1.00;;
46028;SDS011;31763;48.180;7.904;2023-01-08T15:45:45;1.40;;;0.77;;
46028;SDS011;31763;48.180;7.904;2023-01-08T15:48:35;1.73;;;1.00;;
46028;SDS011;31763;48.180;7.904;2023-01-08T15:51:14;1.00;;;0.80;;
46028;SDS011;31763;48.180;7.904;2023-01-08T15:53:47;3.53;;;1.67;;
46028;SDS011;31763;48.180;7.904;2023-01-08T15:56:14;0.95;;;0.88;;
46028;SDS011;31763;48.180;7.904;2023-01-08T15:58:48;4.13;;;2.00;;
46028;SDS011;31763;48.180;7.904;2023-01-08T16:01:20;1.60;;;0.98;;
46028;SDS011;31763;48.180;7.904;2023-01-08T16:04:05;1.13;;;0.80;;
46028;SDS011;31763;48.180;7.904;2023-01-08T16:06:36;1.50;;;0.90;;
46028;SDS011;31763;48.180;7.904;2023-01-08T16:09:03;3.75;;;1.92;;
46028;SDS011;31763;48.180;7.904;2023-01-08T16:11:38;1.33;;;1.20;;
46028;SDS011;31763;48.180;7.904;2023-01-08T16:14:11;3.17;;;2.00;;
46028;SDS011;31763;48.180;7.904;2023-01-08T16:16:41;1.73;;;1.50;;
46028;SDS011;31763;48.180;7.904;2023-01-08T16:19:11;1.85;;;1.13;;
46028;SDS011;31763;48.180;7.904;2023-01-08T16:21:43;2.20;;;1.83;;
46028;SDS011;31763;48.180;7.904;2023-01-08T16:24:13;2.75;;;2.00;;
46028;SDS011;31763;48.180;7.904;2023-01-08T16:26:46;3.15;;;2.00;;
46028;SDS011;31763;48.180;7.904;2023-01-08T16:29:16;2.55;;;1.17;;
46028;SDS011;31763;48.180;7.904;2023-01-08T16:31:44;2.92;;;2.20;;
46028;SDS011;31763;48.180;7.904;2023-01-08T16:34:18;7.97;;;4.57;;
46028;SDS011;31763;48.180;7.904;2023-01-08T16:36:46;11.98;;;7.43;;
46028;SDS011;31763;48.180;7.904;2023-01-08T16:39:14;6.10;;;4.55;;
46028;SDS011;31763;48.180;7.904;2023-01-08T16:41:41;2.53;;;1.45;;
46028;SDS011;31763;48.180;7.904;2023-01-08T16:44:18;1.85;;;1.52;;
46028;SDS011;31763;48.180;7.904;2023-01-08T16:46:52;2.45;;;1.17;;
46028;SDS011;31763;48.180;7.904;2023-01-08T16:49:25;2.78;;;1.20;;